createdAt,value
2018-11-29T00:00:46.354Z,21.37
2018-11-29T00:03:15.629Z,19.57
2018-11-29T00:05:44.966Z,22.80
2018-11-29T00:08:14.737Z,21.80
2018-11-29T00:10:44.108Z,23.85
2018-11-29T00:13:13.620Z,20.95
2018-11-29T00:15:42.998Z,22.20
2018-11-29T00:18:12.601Z,20.82
2018-11-29T00:20:42.071Z,21.95
2018-11-29T00:23:11.594Z,21.68
2018-11-29T00:25:40.904Z,20.85
2018-11-29T00:28:10.169Z,21.35
2018-11-29T00:30:39.978Z,22.42
2018-11-29T00:33:09.375Z,23.50
2018-11-29T00:35:38.816Z,21.87
2018-11-29T00:38:09.199Z,22.65
2018-11-29T00:40:38.963Z,21.12
2018-11-29T00:43:08.628Z,21.80
2018-11-29T00:45:38.025Z,21.93
2018-11-29T00:48:07.848Z,22.35
2018-11-29T00:50:37.317Z,21.95
2018-11-29T00:53:07.368Z,21.55
2018-11-29T00:55:37.096Z,22.45
2018-11-29T00:58:07.200Z,21.15
2018-11-29T01:00:37.102Z,21.68
2018-11-29T01:03:07.149Z,21.55
2018-11-29T01:05:36.896Z,22.48
2018-11-29T01:08:06.482Z,21.90
2018-11-29T01:10:35.864Z,20.52
2018-11-29T01:13:05.497Z,23.40
2018-11-29T01:15:34.950Z,20.85
2018-11-29T01:18:04.451Z,22.13
2018-11-29T01:20:33.898Z,20.82
2018-11-29T01:23:03.439Z,21.25
2018-11-29T01:25:32.797Z,23.27
2018-11-29T01:28:02.247Z,18.82
2018-11-29T01:30:45.957Z,21.95
2018-11-29T01:33:15.365Z,21.20
2018-11-29T01:35:44.897Z,20.45
2018-11-29T01:38:14.173Z,19.90
2018-11-29T01:40:43.797Z,21.65
2018-11-29T01:43:13.043Z,22.15
2018-11-29T01:45:42.356Z,22.40
2018-11-29T01:48:11.613Z,21.60
2018-11-29T01:50:40.873Z,22.55
2018-11-29T01:53:10.376Z,22.25
2018-11-29T01:55:39.628Z,19.00
2018-11-29T01:58:08.886Z,21.00
2018-11-29T02:00:38.169Z,20.02
2018-11-29T02:03:07.933Z,22.45
2018-11-29T02:05:37.441Z,19.27
2018-11-29T02:08:06.738Z,20.68
2018-11-29T02:10:41.391Z,22.58
2018-11-29T02:13:11.117Z,22.32
2018-11-29T02:15:40.409Z,22.37
2018-11-29T02:18:09.718Z,22.45
2018-11-29T02:20:39.149Z,20.35
2018-11-29T02:23:08.666Z,20.92
2018-11-29T02:25:38.292Z,20.62
2018-11-29T02:28:07.830Z,21.42
2018-11-29T02:30:37.342Z,21.45
2018-11-29T02:33:06.951Z,19.95
2018-11-29T02:35:36.780Z,21.33
2018-11-29T02:38:06.311Z,21.10
2018-11-29T02:40:35.754Z,21.77
2018-11-29T02:43:05.701Z,21.65
2018-11-29T02:45:35.511Z,21.10
2018-11-29T02:48:05.369Z,21.10
2018-11-29T02:50:34.995Z,21.02
2018-11-29T02:53:04.539Z,20.37
2018-11-29T02:55:34.038Z,21.00
2018-11-29T02:58:05.035Z,21.33
2018-11-29T03:00:34.739Z,22.35
2018-11-29T03:03:04.332Z,23.70
2018-11-29T03:05:33.927Z,23.12
2018-11-29T03:08:03.319Z,22.45
2018-11-29T03:10:33.035Z,22.35
2018-11-29T03:13:02.691Z,20.40
2018-11-29T03:15:32.461Z,21.93
2018-11-29T03:18:01.940Z,22.00
2018-11-29T03:20:31.729Z,22.42
2018-11-29T03:23:01.337Z,22.50
2018-11-29T03:25:30.838Z,23.15
2018-11-29T03:28:00.443Z,21.27
2018-11-29T03:30:29.976Z,22.37
2018-11-29T03:32:59.655Z,21.90
2018-11-29T03:35:29.026Z,21.20
2018-11-29T03:37:58.468Z,22.37
2018-11-29T03:40:28.044Z,21.68
2018-11-29T03:42:57.650Z,22.40
2018-11-29T03:45:27.024Z,21.42
2018-11-29T03:47:56.542Z,21.62
2018-11-29T03:50:26.300Z,22.00
2018-11-29T03:52:55.822Z,22.90
2018-11-29T03:55:25.685Z,18.98
2018-11-29T03:57:55.144Z,21.60
2018-11-29T04:00:24.668Z,21.02
2018-11-29T04:02:54.227Z,21.57
2018-11-29T04:05:24.090Z,21.65
2018-11-29T04:07:53.486Z,21.85
2018-11-29T04:10:23.059Z,21.48
2018-11-29T04:12:52.702Z,22.62
2018-11-29T04:15:22.922Z,22.50
2018-11-29T04:17:52.555Z,20.27
2018-11-29T04:20:22.280Z,20.50
2018-11-29T04:22:51.901Z,21.90
2018-11-29T04:25:21.393Z,22.22
2018-11-29T04:27:51.306Z,20.00
2018-11-29T04:30:21.184Z,21.55
2018-11-29T04:32:50.913Z,21.50
2018-11-29T04:35:20.837Z,20.30
2018-11-29T04:37:51.050Z,20.77
2018-11-29T04:40:20.884Z,23.75
2018-11-29T04:42:51.972Z,22.67
2018-11-29T04:45:21.526Z,21.80
2018-11-29T04:47:51.547Z,22.32
2018-11-29T04:50:21.654Z,23.00
2018-11-29T04:52:51.293Z,22.73
2018-11-29T04:55:21.490Z,22.42
2018-11-29T04:57:51.207Z,23.55
2018-11-29T05:00:21.309Z,22.10
2018-11-29T05:02:51.150Z,22.37
2018-11-29T05:05:21.217Z,21.80
2018-11-29T05:07:50.959Z,23.15
2018-11-29T05:10:20.687Z,22.20
2018-11-29T05:12:50.816Z,24.35
2018-11-29T05:15:21.026Z,23.85
2018-11-29T05:17:50.744Z,22.25
2018-11-29T05:20:20.454Z,23.40
2018-11-29T05:22:49.905Z,23.87
2018-11-29T05:25:19.577Z,24.23
2018-11-29T05:27:49.014Z,23.40
2018-11-29T05:30:18.342Z,23.57
2018-11-29T05:32:47.757Z,24.60
2018-11-29T05:35:17.455Z,23.20
2018-11-29T05:37:46.938Z,23.47
2018-11-29T05:40:16.208Z,23.80
2018-11-29T05:42:45.476Z,23.90
2018-11-29T05:45:15.388Z,23.35
2018-11-29T05:47:44.884Z,21.62
2018-11-29T05:50:14.360Z,20.80
2018-11-29T05:52:43.683Z,21.70
2018-11-29T05:55:13.903Z,22.75
2018-11-29T05:57:43.622Z,21.93
2018-11-29T06:00:15.009Z,22.17
2018-11-29T06:02:45.033Z,22.15
2018-11-29T06:05:16.920Z,23.50
2018-11-29T06:07:46.906Z,21.80
2018-11-29T06:10:19.591Z,23.47
2018-11-29T06:12:49.839Z,22.73
2018-11-29T06:15:19.528Z,20.57
2018-11-29T06:17:49.636Z,23.70
2018-11-29T06:20:20.479Z,21.93
2018-11-29T06:22:50.075Z,24.27
2018-11-29T06:25:19.694Z,23.52
2018-11-29T06:27:49.411Z,22.55
2018-11-29T06:30:21.615Z,22.90
2018-11-29T06:32:53.230Z,25.43
2018-11-29T06:35:23.044Z,24.82
2018-11-29T06:37:52.352Z,23.25
2018-11-29T06:40:21.871Z,22.80
2018-11-29T06:42:51.682Z,24.80
2018-11-29T06:45:22.403Z,22.95
2018-11-29T06:47:53.134Z,23.32
2018-11-29T06:50:23.710Z,22.15
2018-11-29T06:52:53.558Z,23.80
2018-11-29T06:55:24.469Z,20.95
2018-11-29T06:57:54.546Z,24.07
2018-11-29T07:00:27.895Z,23.30
2018-11-29T07:02:57.221Z,24.67
2018-11-29T07:05:26.530Z,23.90
2018-11-29T07:07:56.267Z,23.47
2018-11-29T07:10:30.786Z,24.27
2018-11-29T07:13:00.266Z,22.80
2018-11-29T07:15:29.660Z,22.07
2018-11-29T07:17:59.336Z,23.35
2018-11-29T07:20:28.676Z,24.40
2018-11-29T07:22:58.118Z,24.25
2018-11-29T07:25:27.513Z,24.55
2018-11-29T07:27:56.966Z,24.15
2018-11-29T07:30:26.474Z,23.55
2018-11-29T07:32:55.732Z,24.20
2018-11-29T07:35:25.123Z,23.90
2018-11-29T07:37:54.400Z,23.25
2018-11-29T07:40:23.733Z,23.12
2018-11-29T07:42:54.858Z,25.25
2018-11-29T07:45:24.115Z,22.98
2018-11-29T07:47:53.427Z,24.92
2018-11-29T07:50:24.414Z,25.02
2018-11-29T07:52:53.681Z,25.77
2018-11-29T07:55:23.410Z,22.17
2018-11-29T07:57:53.707Z,22.45
2018-11-29T08:00:23.062Z,24.72
2018-11-29T08:02:52.302Z,25.48
2018-11-29T08:05:21.686Z,24.85
2018-11-29T08:07:50.973Z,25.85
2018-11-29T08:10:21.029Z,24.25
2018-11-29T08:12:50.565Z,25.20
2018-11-29T08:15:21.858Z,23.35
2018-11-29T08:17:51.135Z,22.90
2018-11-29T08:20:22.253Z,23.55
2018-11-29T08:22:51.582Z,22.70
2018-11-29T08:25:20.879Z,22.85
2018-11-29T08:27:50.226Z,23.05
2018-11-29T08:30:19.495Z,22.85
2018-11-29T08:32:48.750Z,22.80
2018-11-29T08:35:19.115Z,22.75
2018-11-29T08:37:48.591Z,20.55
2018-11-29T08:40:20.758Z,23.80
2018-11-29T08:42:50.039Z,21.65
2018-11-29T08:45:19.539Z,20.37
2018-11-29T08:47:48.853Z,22.25
2018-11-29T08:50:18.088Z,21.77
2018-11-29T08:52:47.662Z,22.55
2018-11-29T08:55:19.776Z,22.82
2018-11-29T08:57:50.065Z,21.35
2018-11-29T09:00:21.946Z,22.73
2018-11-29T09:02:51.397Z,22.25
2018-11-29T09:05:21.333Z,22.75
2018-11-29T09:07:50.790Z,21.27
2018-11-29T09:10:23.006Z,18.02
2018-11-29T09:12:52.708Z,21.85
2018-11-29T09:15:22.136Z,21.52
2018-11-29T09:17:51.514Z,21.50
2018-11-29T09:20:22.604Z,22.90
2018-11-29T09:22:51.969Z,21.20
2018-11-29T09:25:23.200Z,20.57
2018-11-29T09:27:52.941Z,21.20
2018-11-29T09:30:23.416Z,21.50
2018-11-29T09:32:54.723Z,20.43
2018-11-29T09:35:24.125Z,22.15
2018-11-29T09:37:53.398Z,20.80
2018-11-29T09:40:22.784Z,19.77
2018-11-29T09:42:52.099Z,20.52
2018-11-29T09:45:23.937Z,20.25
2018-11-29T09:47:54.883Z,18.62
2018-11-29T09:50:25.901Z,18.65
2018-11-29T09:52:55.259Z,19.37
2018-11-29T09:55:24.722Z,20.32
2018-11-29T09:57:54.106Z,20.50
2018-11-29T10:00:28.009Z,20.23
2018-11-29T10:03:14.237Z,19.50
2018-11-29T10:05:45.265Z,20.27
2018-11-29T10:08:18.279Z,20.88
2018-11-29T10:10:47.571Z,20.10
2018-11-29T10:13:16.894Z,22.05
2018-11-29T10:15:46.165Z,21.02
2018-11-29T10:18:15.428Z,20.37
2018-11-29T10:20:44.669Z,18.98
2018-11-29T10:23:14.353Z,19.55
2018-11-29T10:25:43.615Z,21.05
2018-11-29T10:28:16.339Z,19.02
2018-11-29T10:31:00.709Z,20.27
2018-11-29T10:33:30.057Z,19.17
2018-11-29T10:35:59.576Z,18.92
2018-11-29T10:38:28.695Z,18.82
2018-11-29T10:40:58.037Z,20.90
2018-11-29T10:43:27.298Z,19.52
2018-11-29T10:45:56.616Z,18.92
2018-11-29T10:48:26.516Z,20.05
2018-11-29T10:50:55.820Z,20.23
2018-11-29T10:53:25.148Z,21.55
2018-11-29T10:55:54.429Z,21.52
2018-11-29T10:58:23.693Z,18.75
2018-11-29T11:00:58.177Z,19.05
2018-11-29T11:03:27.436Z,18.80
2018-11-29T11:05:56.729Z,20.27
2018-11-29T11:08:26.319Z,20.00
2018-11-29T11:10:55.578Z,18.92
2018-11-29T11:13:24.835Z,19.05
2018-11-29T11:15:54.252Z,18.80
2018-11-29T11:18:23.711Z,19.07
2018-11-29T11:20:53.564Z,20.25
2018-11-29T11:23:22.954Z,19.37
2018-11-29T11:25:52.178Z,18.70
2018-11-29T11:28:21.573Z,19.05
2018-11-29T11:30:51.040Z,18.92
2018-11-29T11:33:20.291Z,18.12
2018-11-29T11:35:49.555Z,19.27
2018-11-29T11:38:18.826Z,20.75
2018-11-29T11:40:48.086Z,20.20
2018-11-29T11:43:17.357Z,18.52
2018-11-29T11:45:46.657Z,18.85
2018-11-29T11:48:16.010Z,19.15
2018-11-29T11:50:45.275Z,19.40
2018-11-29T11:53:15.113Z,20.32
2018-11-29T11:55:44.394Z,18.55
2018-11-29T11:58:13.678Z,17.95
2018-11-29T12:00:42.967Z,18.65
2018-11-29T12:03:14.880Z,18.52
2018-11-29T12:05:44.226Z,18.65
2018-11-29T12:08:13.709Z,18.10
2018-11-29T12:10:44.058Z,17.62
2018-11-29T12:13:13.459Z,17.60
2018-11-29T12:15:42.712Z,18.65
2018-11-29T12:18:13.441Z,19.87
2018-11-29T12:20:43.016Z,19.85
2018-11-29T12:23:12.584Z,19.07
2018-11-29T12:25:41.909Z,19.92
2018-11-29T12:28:11.250Z,18.73
2018-11-29T12:30:46.098Z,19.77
2018-11-29T12:33:15.648Z,18.45
2018-11-29T12:35:44.948Z,19.62
2018-11-29T12:38:14.278Z,19.07
2018-11-29T12:40:43.664Z,19.02
2018-11-29T12:43:12.938Z,17.98
2018-11-29T12:45:42.260Z,17.98
2018-11-29T12:48:11.597Z,17.85
2018-11-29T12:50:40.882Z,17.60
2018-11-29T12:53:10.169Z,18.20
2018-11-29T12:55:42.231Z,17.65
2018-11-29T12:58:11.506Z,17.02
2018-11-29T13:00:40.765Z,17.98
2018-11-29T13:03:11.198Z,16.10
2018-11-29T13:05:40.499Z,17.23
2018-11-29T13:08:10.578Z,16.50
2018-11-29T13:10:39.841Z,17.37
2018-11-29T13:13:09.115Z,15.70
2018-11-29T13:15:38.601Z,16.32
2018-11-29T13:18:09.687Z,16.48
2018-11-29T13:20:38.975Z,16.17
2018-11-29T13:23:08.260Z,14.93
2018-11-29T13:25:37.717Z,16.52
2018-11-29T13:28:08.324Z,16.07
2018-11-29T13:30:38.494Z,16.40
2018-11-29T13:33:09.532Z,15.65
2018-11-29T13:35:38.920Z,15.30
2018-11-29T13:38:12.658Z,16.20
2018-11-29T13:40:44.420Z,15.65
2018-11-29T13:43:13.762Z,15.55
2018-11-29T13:45:43.069Z,13.93
2018-11-29T13:48:13.732Z,15.15
2018-11-29T13:50:43.240Z,15.75
2018-11-29T13:53:12.765Z,14.60
2018-11-29T13:55:42.131Z,15.30
2018-11-29T13:58:11.696Z,14.03
2018-11-29T14:00:41.019Z,15.63
2018-11-29T14:03:13.616Z,16.27
2018-11-29T14:05:42.914Z,15.18
2018-11-29T14:08:12.214Z,15.95
2018-11-29T14:10:43.153Z,15.60
2018-11-29T14:13:13.637Z,13.80
2018-11-29T14:15:42.934Z,15.20
2018-11-29T14:18:12.477Z,14.00
2018-11-29T14:20:41.813Z,12.53
2018-11-29T14:23:11.129Z,14.03
2018-11-29T14:25:47.416Z,14.13
2018-11-29T14:28:16.735Z,14.15
2018-11-29T14:30:46.171Z,14.38
2018-11-29T14:33:15.894Z,14.05
2018-11-29T14:35:45.217Z,14.73
2018-11-29T14:38:14.540Z,13.83
2018-11-29T14:40:43.847Z,12.95
2018-11-29T14:43:13.136Z,15.63
2018-11-29T14:45:42.538Z,14.65
2018-11-29T14:48:11.827Z,12.78
2018-11-29T14:50:44.720Z,13.60
2018-11-29T14:53:14.737Z,13.30
2018-11-29T14:55:44.030Z,13.70
2018-11-29T14:58:19.478Z,12.75
2018-11-29T15:00:43.982Z,14.45
2018-11-29T15:03:17.435Z,15.00
2018-11-29T15:05:47.264Z,13.05
2018-11-29T15:08:16.702Z,11.78
2018-11-29T15:10:45.972Z,13.85
2018-11-29T15:13:15.454Z,11.88
2018-11-29T15:15:45.109Z,12.55
2018-11-29T15:18:14.425Z,14.03
2018-11-29T15:20:46.137Z,13.60
2018-11-29T15:23:17.855Z,13.18
2018-11-29T15:25:47.202Z,13.62
2018-11-29T15:28:16.532Z,12.00
2018-11-29T15:30:45.808Z,11.90
2018-11-29T15:33:15.451Z,12.65
2018-11-29T15:35:44.753Z,12.53
2018-11-29T15:38:14.016Z,11.43
2018-11-29T15:40:43.328Z,13.58
2018-11-29T15:43:12.610Z,12.13
2018-11-29T15:45:42.979Z,12.58
2018-11-29T15:48:12.321Z,12.73
2018-11-29T15:50:41.605Z,12.75
2018-11-29T15:53:10.894Z,13.30
2018-11-29T15:55:40.769Z,14.25
2018-11-29T15:58:10.076Z,11.78
2018-11-29T16:00:39.421Z,10.98
2018-11-29T16:03:10.133Z,9.60
2018-11-29T16:05:41.158Z,12.55
2018-11-29T16:08:08.838Z,11.50
2018-11-29T16:10:38.172Z,12.13
2018-11-29T16:13:08.397Z,12.43
2018-11-29T16:15:38.474Z,12.37
2018-11-29T16:18:08.434Z,12.33
2018-11-29T16:20:39.328Z,11.57
2018-11-29T16:23:10.034Z,12.28
2018-11-29T16:25:39.379Z,11.83
2018-11-29T16:28:09.966Z,10.80
2018-11-29T16:30:45.307Z,11.65
2018-11-29T16:33:23.229Z,10.75
2018-11-29T16:35:52.983Z,10.85
2018-11-29T16:38:22.286Z,11.18
2018-11-29T16:40:51.918Z,10.90
2018-11-29T16:43:21.263Z,12.40
2018-11-29T16:45:50.528Z,11.50
2018-11-29T16:48:19.833Z,10.68
2018-11-29T16:50:49.211Z,11.95
2018-11-29T16:53:18.554Z,10.23
2018-11-29T16:55:48.097Z,10.90
2018-11-29T16:58:24.161Z,10.15
2018-11-29T17:00:53.539Z,10.90
2018-11-29T17:03:22.878Z,11.28
2018-11-29T17:05:52.232Z,9.35
2018-11-29T17:08:21.609Z,10.65
2018-11-29T17:10:51.039Z,10.82
2018-11-29T17:13:20.679Z,9.95
2018-11-29T17:15:50.056Z,10.82
2018-11-29T17:18:19.485Z,11.20
2018-11-29T17:20:48.993Z,11.57
2018-11-29T17:23:18.325Z,11.40
2018-11-29T17:25:47.701Z,10.38
2018-11-29T17:28:17.572Z,9.70
2018-11-29T17:30:46.907Z,9.63
2018-11-29T17:33:16.358Z,10.25
2018-11-29T17:35:45.687Z,10.80
2018-11-29T17:38:15.044Z,9.85
2018-11-29T17:40:44.343Z,10.48
2018-11-29T17:43:14.193Z,9.73
2018-11-29T17:45:43.588Z,10.43
2018-11-29T17:48:13.904Z,10.03
2018-11-29T17:50:44.939Z,9.65
2018-11-29T17:53:14.498Z,11.97
2018-11-29T17:55:43.859Z,10.20
2018-11-29T17:58:15.932Z,10.15
2018-11-29T18:00:48.990Z,10.68
2018-11-29T18:03:21.106Z,10.15
2018-11-29T18:05:50.454Z,11.33
2018-11-29T18:08:19.748Z,9.60
2018-11-29T18:10:52.496Z,9.78
2018-11-29T18:13:25.856Z,11.00
2018-11-29T18:15:55.291Z,11.10
2018-11-29T18:18:24.631Z,9.70
2018-11-29T18:20:54.024Z,10.65
2018-11-29T18:23:23.417Z,10.20
2018-11-29T18:25:52.744Z,10.28
2018-11-29T18:28:22.699Z,10.40
2018-11-29T18:30:52.093Z,9.28
2018-11-29T18:33:21.473Z,9.58
2018-11-29T18:35:50.803Z,9.93
2018-11-29T18:38:20.296Z,9.70
2018-11-29T18:40:49.614Z,10.30
2018-11-29T18:43:18.899Z,9.43
2018-11-29T18:45:48.216Z,9.98
2018-11-29T18:48:17.513Z,10.70
2018-11-29T18:50:46.849Z,11.45
2018-11-29T18:53:16.227Z,9.90
2018-11-29T18:55:45.557Z,10.68
2018-11-29T18:58:14.861Z,10.20
2018-11-29T19:00:44.610Z,12.35
2018-11-29T19:03:14.065Z,11.00
2018-11-29T19:05:43.376Z,10.82
2018-11-29T19:08:12.700Z,10.23
2018-11-29T19:10:41.976Z,11.10
2018-11-29T19:13:14.727Z,10.18
2018-11-29T19:15:44.035Z,11.30
2018-11-29T19:18:13.547Z,10.95
2018-11-29T19:20:45.979Z,10.70
2018-11-29T19:23:15.296Z,11.30
2018-11-29T19:25:44.633Z,10.35
2018-11-29T19:28:13.973Z,10.53
2018-11-29T19:30:43.745Z,10.65
2018-11-29T19:33:21.434Z,11.03
2018-11-29T19:35:52.829Z,11.12
2018-11-29T19:38:22.201Z,10.78
2018-11-29T19:40:51.706Z,11.73
2018-11-29T19:43:21.275Z,11.43
2018-11-29T19:45:50.606Z,12.20
2018-11-29T19:48:20.053Z,11.83
2018-11-29T19:50:49.343Z,11.50
2018-11-29T19:53:23.231Z,11.30
2018-11-29T19:55:57.545Z,11.50
2018-11-29T19:58:27.382Z,12.47
2018-11-29T20:00:56.880Z,11.38
2018-11-29T20:03:26.270Z,11.03
2018-11-29T20:05:55.585Z,11.18
2018-11-29T20:08:24.929Z,10.82
2018-11-29T20:10:54.616Z,10.45
2018-11-29T20:13:23.946Z,9.85
2018-11-29T20:15:55.071Z,10.72
2018-11-29T20:18:24.537Z,10.50
2018-11-29T20:20:53.948Z,10.88
2018-11-29T20:23:23.408Z,10.50
2018-11-29T20:25:53.098Z,10.10
2018-11-29T20:28:23.360Z,9.43
2018-11-29T20:30:53.746Z,10.28
2018-11-29T20:33:23.285Z,9.10
2018-11-29T20:35:52.815Z,9.13
2018-11-29T20:38:22.569Z,9.25
2018-11-29T20:40:52.191Z,9.65
2018-11-29T20:43:22.202Z,9.48
2018-11-29T20:45:54.900Z,9.78
2018-11-29T20:48:26.936Z,10.18
2018-11-29T20:50:58.198Z,9.23
2018-11-29T20:53:37.287Z,9.50
2018-11-29T20:56:11.173Z,8.50
2018-11-29T20:58:41.087Z,9.80
2018-11-29T21:01:11.475Z,9.53
2018-11-29T21:03:41.155Z,9.50
2018-11-29T21:06:13.756Z,9.40
2018-11-29T21:08:43.607Z,9.40
2018-11-29T21:11:13.714Z,8.83
2018-11-29T21:13:43.705Z,9.47
2018-11-29T21:16:15.118Z,8.90
2018-11-29T21:18:45.106Z,8.90
2018-11-29T21:21:14.453Z,8.97
2018-11-29T21:23:44.320Z,9.13
2018-11-29T21:26:13.913Z,8.90
2018-11-29T21:28:43.468Z,9.60
2018-11-29T21:31:13.123Z,9.13
2018-11-29T21:33:42.922Z,9.07
2018-11-29T21:36:13.528Z,8.20
2018-11-29T21:38:43.465Z,8.93
2018-11-29T21:41:13.298Z,9.33
2018-11-29T21:43:43.008Z,8.80
2018-11-29T21:46:12.614Z,9.10
2018-11-29T21:48:42.379Z,8.30
2018-11-29T21:51:12.156Z,8.60
2018-11-29T21:53:41.477Z,8.95
2018-11-29T21:56:11.096Z,9.05
2018-11-29T21:58:40.866Z,9.37
2018-11-29T22:01:11.077Z,9.90
2018-11-29T22:03:40.809Z,8.73
2018-11-29T22:06:10.489Z,9.63
2018-11-29T22:08:40.334Z,8.93
2018-11-29T22:11:10.129Z,10.63
2018-11-29T22:13:39.844Z,9.20
2018-11-29T22:16:09.762Z,9.88
2018-11-29T22:18:39.744Z,9.53
2018-11-29T22:21:09.578Z,10.47
2018-11-29T22:23:40.926Z,9.35
2018-11-29T22:26:16.044Z,10.28
2018-11-29T22:28:45.907Z,10.13
2018-11-29T22:31:16.664Z,9.18
2018-11-29T22:33:46.438Z,9.28
2018-11-29T22:36:16.229Z,9.60
2018-11-29T22:38:45.829Z,9.18
2018-11-29T22:41:15.443Z,9.58
2018-11-29T22:43:44.925Z,9.55
2018-11-29T22:46:14.330Z,10.65
2018-11-29T22:48:43.770Z,10.63
2018-11-29T22:51:13.263Z,9.23
2018-11-29T22:53:42.544Z,10.10
2018-11-29T22:56:11.954Z,8.45
2018-11-29T22:58:41.400Z,10.48
2018-11-29T23:01:16.130Z,9.15
2018-11-29T23:03:45.427Z,9.50
2018-11-29T23:06:14.936Z,10.03
2018-11-29T23:08:44.651Z,9.73
2018-11-29T23:11:14.541Z,10.05
2018-11-29T23:13:44.136Z,8.78
2018-11-29T23:16:13.612Z,9.63
2018-11-29T23:18:43.163Z,9.93
2018-11-29T23:21:12.620Z,10.23
2018-11-29T23:23:42.282Z,9.55
2018-11-29T23:26:11.835Z,8.65
2018-11-29T23:28:41.312Z,9.97
2018-11-29T23:31:10.953Z,9.97
2018-11-29T23:33:40.942Z,9.95
2018-11-29T23:36:10.443Z,8.80
2018-11-29T23:38:40.034Z,9.05
2018-11-29T23:41:09.932Z,9.88
2018-11-29T23:43:39.218Z,8.88
2018-11-29T23:46:08.854Z,9.53
2018-11-29T23:48:38.400Z,9.00
2018-11-29T23:51:07.983Z,9.58
2018-11-29T23:53:37.545Z,9.97
2018-11-29T23:56:07.771Z,9.73
2018-11-29T23:58:37.163Z,10.27
